createdAt,value
2022-10-22T00:00:50.661Z,18.40
2022-10-22T00:03:17.868Z,18.40
2022-10-22T00:05:45.017Z,18.40
2022-10-22T00:08:12.179Z,18.40
2022-10-22T00:10:39.444Z,18.50
2022-10-22T00:13:07.168Z,18.50
2022-10-22T00:15:34.394Z,18.50
2022-10-22T00:18:01.581Z,18.50
2022-10-22T00:20:28.923Z,18.50
2022-10-22T00:22:56.128Z,18.50
2022-10-22T00:25:23.416Z,18.50
2022-10-22T00:27:50.635Z,18.50
2022-10-22T00:30:17.876Z,18.50
2022-10-22T00:32:45.110Z,18.50
2022-10-22T00:35:12.407Z,18.40
2022-10-22T00:37:39.559Z,18.40
2022-10-22T00:40:07.374Z,18.40
2022-10-22T00:42:34.537Z,18.40
2022-10-22T00:45:26.172Z,18.40
2022-10-22T00:48:09.316Z,18.30
2022-10-22T00:50:41.493Z,18.30
2022-10-22T00:53:13.568Z,18.30
2022-10-22T00:55:43.610Z,18.30
2022-10-22T00:58:11.336Z,18.30
2022-10-22T01:00:38.658Z,18.30
2022-10-22T01:03:06.442Z,18.30
2022-10-22T01:05:57.553Z,18.20
2022-10-22T01:08:33.975Z,18.20
2022-10-22T01:11:07.470Z,18.20
2022-10-22T01:14:05.831Z,18.20
2022-10-22T01:16:46.460Z,18.20
2022-10-22T01:19:16.468Z,18.10
2022-10-22T01:21:47.707Z,18.10
2022-10-22T01:24:53.044Z,18.10
2022-10-22T01:27:47.898Z,18.10
2022-10-22T01:30:16.115Z,18.00
2022-10-22T01:33:10.671Z,18.00
2022-10-22T01:35:42.673Z,18.00
2022-10-22T01:38:12.548Z,18.00
2022-10-22T01:40:40.402Z,18.00
2022-10-22T01:43:10.808Z,18.00
2022-10-22T01:45:58.132Z,18.00
2022-10-22T01:49:06.280Z,18.00
2022-10-22T01:51:52.993Z,18.00
2022-10-22T01:54:29.891Z,18.00
2022-10-22T01:56:57.072Z,18.00
2022-10-22T01:59:46.180Z,18.00
2022-10-22T02:03:01.722Z,18.00
2022-10-22T02:05:44.632Z,17.90
2022-10-22T02:08:18.651Z,17.90
2022-10-22T02:10:47.647Z,17.80
2022-10-22T02:13:25.512Z,17.70
2022-10-22T02:15:53.474Z,17.70
2022-10-22T02:18:23.548Z,17.70
2022-10-22T02:20:51.415Z,17.70
2022-10-22T02:23:19.260Z,17.70
2022-10-22T02:25:51.517Z,17.70
2022-10-22T02:28:39.681Z,17.60
2022-10-22T02:31:29.168Z,17.60
2022-10-22T02:34:01.898Z,17.50
2022-10-22T02:36:29.220Z,17.50
2022-10-22T02:38:57.395Z,17.50
2022-10-22T02:41:24.865Z,17.50
2022-10-22T02:43:56.416Z,17.50
2022-10-22T02:46:24.879Z,17.50
2022-10-22T02:48:52.131Z,17.50
2022-10-22T02:51:19.367Z,17.40
2022-10-22T02:53:46.516Z,17.40
2022-10-22T02:56:14.356Z,17.40
2022-10-22T02:58:41.505Z,17.40
2022-10-22T03:01:10.375Z,17.30
2022-10-22T03:03:40.003Z,17.40
2022-10-22T03:06:07.444Z,17.40
2022-10-22T03:08:35.061Z,17.30
2022-10-22T03:11:02.167Z,17.30
2022-10-22T03:13:29.495Z,17.30
2022-10-22T03:15:56.760Z,17.30
2022-10-22T03:18:24.070Z,17.20
2022-10-22T03:20:51.164Z,17.20
2022-10-22T03:23:20.481Z,17.30
2022-10-22T03:25:50.841Z,17.30
2022-10-22T03:28:18.957Z,17.20
2022-10-22T03:30:46.112Z,17.20
2022-10-22T03:33:13.301Z,17.20
2022-10-22T03:35:45.475Z,17.20
2022-10-22T03:38:13.573Z,17.20
2022-10-22T03:40:42.904Z,17.20
2022-10-22T03:43:11.093Z,17.10
2022-10-22T03:48:10.573Z,17.10
2022-10-22T03:50:37.649Z,17.10
2022-10-22T03:53:05.009Z,17.10
2022-10-22T03:55:32.166Z,17.10
2022-10-22T03:57:59.415Z,17.10
2022-10-22T04:00:26.583Z,17.10
2022-10-22T04:02:53.782Z,17.10
2022-10-22T04:05:20.996Z,17.10
2022-10-22T04:07:48.241Z,17.00
2022-10-22T04:10:15.424Z,17.00
2022-10-22T04:12:42.654Z,17.00
2022-10-22T04:15:13.420Z,17.00
2022-10-22T04:17:40.915Z,17.00
2022-10-22T04:20:08.783Z,17.00
2022-10-22T04:22:37.177Z,17.00
2022-10-22T04:25:05.621Z,17.00
2022-10-22T04:27:33.988Z,17.00
2022-10-22T04:30:01.224Z,17.00
2022-10-22T04:32:28.482Z,17.00
2022-10-22T04:34:55.801Z,17.00
2022-10-22T04:37:25.345Z,17.00
2022-10-22T04:39:57.957Z,17.00
2022-10-22T04:42:25.805Z,17.00
2022-10-22T04:44:53.029Z,17.00
2022-10-22T04:47:20.212Z,17.00
2022-10-22T04:49:47.421Z,17.00
2022-10-22T04:52:14.565Z,17.00
2022-10-22T04:54:41.840Z,17.00
2022-10-22T04:57:08.952Z,16.90
2022-10-22T04:59:36.202Z,16.90
2022-10-22T05:02:03.903Z,17.00
2022-10-22T05:04:31.599Z,17.00
2022-10-22T05:06:58.823Z,17.00
2022-10-22T05:09:26.001Z,17.00
2022-10-22T05:11:53.642Z,17.10
2022-10-22T05:14:24.208Z,17.10
2022-10-22T05:16:52.585Z,17.10
2022-10-22T05:19:24.292Z,17.10
2022-10-22T05:21:53.948Z,17.10
2022-10-22T05:24:21.464Z,17.20
2022-10-22T05:26:52.944Z,17.20
2022-10-22T05:29:21.138Z,17.20
2022-10-22T05:31:48.372Z,17.20
2022-10-22T05:34:16.390Z,17.20
2022-10-22T05:36:44.716Z,17.20
2022-10-22T05:39:12.826Z,17.20
2022-10-22T05:41:40.289Z,17.20
2022-10-22T05:44:07.626Z,17.30
2022-10-22T05:46:36.675Z,17.30
2022-10-22T05:49:06.062Z,17.40
2022-10-22T05:51:35.426Z,17.40
2022-10-22T05:54:04.635Z,17.50
2022-10-22T05:56:32.867Z,17.50
2022-10-22T06:01:35.537Z,17.70
2022-10-22T06:04:06.886Z,17.90
2022-10-22T06:06:38.018Z,18.00
2022-10-22T06:09:15.224Z,18.10
2022-10-22T06:11:42.562Z,18.10
2022-10-22T06:14:10.854Z,18.20
2022-10-22T06:16:38.599Z,18.30
2022-10-22T06:19:06.579Z,18.40
2022-10-22T06:21:34.131Z,18.40
2022-10-22T06:24:02.458Z,18.50
2022-10-22T06:26:30.037Z,18.60
2022-10-22T06:28:57.888Z,18.70
2022-10-22T06:31:28.995Z,18.80
2022-10-22T06:33:57.495Z,18.90
2022-10-22T06:36:25.043Z,18.90
2022-10-22T06:38:54.326Z,19.00
2022-10-22T06:41:24.376Z,19.10
2022-10-22T06:43:55.966Z,19.20
2022-10-22T06:46:24.595Z,19.30
2022-10-22T06:48:55.003Z,19.40
2022-10-22T06:51:26.078Z,19.40
2022-10-22T06:53:54.977Z,19.50
2022-10-22T06:56:24.282Z,19.60
2022-10-22T06:59:00.578Z,19.80
2022-10-22T07:01:31.242Z,19.90
2022-10-22T07:03:59.171Z,20.00
2022-10-22T07:06:28.198Z,20.20
2022-10-22T07:08:57.287Z,20.40
2022-10-22T07:11:43.422Z,20.50
2022-10-22T07:14:14.123Z,20.70
2022-10-22T07:16:43.351Z,20.80
2022-10-22T07:19:10.695Z,21.00
2022-10-22T07:21:38.217Z,21.10
2022-10-22T07:24:05.679Z,21.30
2022-10-22T07:26:32.977Z,21.40
2022-10-22T07:29:01.281Z,21.40
2022-10-22T07:31:28.763Z,21.50
2022-10-22T07:34:05.503Z,21.50
2022-10-22T07:36:32.979Z,21.50
2022-10-22T07:39:01.278Z,21.60
2022-10-22T07:41:30.769Z,21.60
2022-10-22T07:43:59.387Z,21.70
2022-10-22T07:46:27.469Z,21.70
2022-10-22T07:48:55.046Z,21.70
2022-10-22T07:51:22.741Z,21.80
2022-10-22T07:53:49.957Z,21.80
2022-10-22T07:56:17.927Z,21.90
2022-10-22T07:58:45.425Z,22.00
2022-10-22T08:01:14.969Z,22.10
2022-10-22T08:03:42.762Z,22.20
2022-10-22T08:06:13.253Z,22.30
2022-10-22T08:08:42.484Z,22.50
2022-10-22T08:11:10.588Z,22.50
2022-10-22T08:13:42.720Z,22.60
2022-10-22T08:16:12.223Z,22.70
2022-10-22T08:18:40.696Z,22.90
2022-10-22T08:21:08.314Z,23.00
2022-10-22T08:23:35.685Z,23.00
2022-10-22T08:26:03.520Z,23.10
2022-10-22T08:28:32.958Z,23.10
2022-10-22T08:31:00.300Z,23.20
2022-10-22T08:33:27.553Z,23.30
2022-10-22T08:35:54.830Z,23.50
2022-10-22T08:38:22.519Z,23.50
2022-10-22T08:40:54.026Z,23.60
2022-10-22T08:43:43.814Z,23.80
2022-10-22T08:46:24.926Z,23.90
2022-10-22T08:48:55.080Z,24.00
2022-10-22T08:51:27.292Z,24.10
2022-10-22T08:54:12.750Z,24.20
2022-10-22T08:56:43.778Z,24.30
2022-10-22T08:59:23.359Z,24.40
2022-10-22T09:01:54.009Z,24.50
2022-10-22T09:04:53.229Z,24.50
2022-10-22T09:07:21.149Z,24.60
2022-10-22T09:09:52.455Z,24.70
2022-10-22T09:12:24.903Z,24.80
2022-10-22T09:14:52.253Z,24.90
2022-10-22T09:17:28.327Z,24.90
2022-10-22T09:20:38.901Z,24.90
2022-10-22T09:23:36.608Z,25.00
2022-10-22T09:26:16.006Z,25.00
2022-10-22T09:28:44.207Z,25.10
2022-10-22T09:31:13.858Z,25.10
2022-10-22T09:33:43.463Z,25.20
2022-10-22T09:36:18.477Z,25.30
2022-10-22T09:38:49.095Z,25.40
2022-10-22T09:41:17.276Z,25.50
2022-10-22T09:43:50.879Z,25.50
2022-10-22T09:46:20.959Z,25.60
2022-10-22T09:48:54.339Z,25.60
2022-10-22T09:51:37.182Z,25.50
2022-10-22T09:54:19.965Z,25.50
2022-10-22T09:57:05.856Z,25.70
2022-10-22T09:59:41.370Z,25.90
2022-10-22T10:02:26.566Z,25.90
2022-10-22T10:05:03.832Z,25.90
2022-10-22T10:07:33.835Z,26.00
2022-10-22T10:10:01.150Z,26.00
2022-10-22T10:12:38.234Z,26.10
2022-10-22T10:15:27.936Z,26.20
2022-10-22T10:17:58.267Z,26.20
2022-10-22T10:20:41.301Z,26.30
2022-10-22T10:23:25.466Z,26.40
2022-10-22T10:26:01.521Z,26.50
2022-10-22T10:28:31.794Z,26.60
2022-10-22T10:31:20.516Z,26.50
2022-10-22T10:34:09.388Z,26.50
2022-10-22T10:36:58.601Z,26.60
2022-10-22T10:39:40.713Z,26.70
2022-10-22T10:42:07.973Z,26.80
2022-10-22T10:44:41.251Z,27.00
2022-10-22T10:47:29.468Z,27.50
2022-10-22T10:50:16.424Z,27.90
2022-10-22T10:53:00.873Z,28.20
2022-10-22T10:55:41.138Z,28.60
2022-10-22T10:58:27.012Z,29.20
2022-10-22T11:01:00.290Z,29.50
2022-10-22T11:03:27.538Z,29.70
2022-10-22T11:06:09.520Z,30.30
2022-10-22T11:08:42.052Z,30.70
2022-10-22T11:14:18.629Z,31.30
2022-10-22T11:16:59.242Z,31.30
2022-10-22T11:19:51.830Z,31.20
2022-10-22T11:22:32.220Z,31.30
2022-10-22T11:25:23.556Z,31.20
2022-10-22T11:28:11.237Z,31.30
2022-10-22T11:30:40.806Z,31.60
2022-10-22T11:33:12.724Z,31.90
2022-10-22T11:35:44.204Z,32.10
2022-10-22T11:38:26.427Z,32.50
2022-10-22T11:41:07.478Z,32.50
2022-10-22T11:43:52.316Z,31.80
2022-10-22T11:46:19.493Z,32.00
2022-10-22T11:49:25.855Z,32.10
2022-10-22T11:52:21.797Z,32.30
2022-10-22T11:54:50.022Z,33.10
2022-10-22T11:57:17.202Z,33.10
2022-10-22T11:59:47.422Z,32.40
2022-10-22T12:02:41.228Z,32.20
2022-10-22T12:05:24.240Z,32.20
2022-10-22T12:08:21.933Z,32.60
2022-10-22T12:11:13.500Z,32.50
2022-10-22T12:13:58.787Z,32.20
2022-10-22T12:16:55.154Z,31.60
2022-10-22T12:19:23.116Z,31.90
2022-10-22T12:22:16.920Z,32.30
2022-10-22T12:24:54.089Z,32.90
2022-10-22T12:27:26.024Z,33.50
2022-10-22T12:29:58.470Z,33.50
2022-10-22T12:32:37.774Z,33.60
2022-10-22T12:35:15.428Z,34.00
2022-10-22T12:37:43.521Z,33.50
2022-10-22T12:40:22.109Z,32.90
2022-10-22T12:42:51.987Z,32.80
2022-10-22T12:45:20.061Z,32.60
2022-10-22T12:47:49.249Z,32.30
2022-10-22T12:50:19.623Z,32.30
2022-10-22T12:52:48.357Z,31.90
2022-10-22T12:55:22.441Z,31.50
2022-10-22T12:57:50.035Z,31.00
2022-10-22T13:00:23.550Z,31.10
2022-10-22T13:02:51.290Z,31.20
2022-10-22T13:05:28.195Z,30.80
2022-10-22T13:08:14.059Z,30.10
2022-10-22T13:10:49.278Z,29.50
2022-10-22T13:13:51.740Z,29.10
2022-10-22T13:16:24.888Z,28.90
2022-10-22T13:18:53.953Z,28.90
2022-10-22T13:21:23.786Z,28.60
2022-10-22T13:23:59.531Z,28.40
2022-10-22T13:26:37.878Z,28.30
2022-10-22T13:29:12.000Z,28.10
2022-10-22T13:31:49.003Z,27.60
2022-10-22T13:34:20.937Z,27.10
2022-10-22T13:36:49.203Z,26.90
2022-10-22T13:39:21.758Z,26.70
2022-10-22T13:41:51.731Z,26.70
2022-10-22T13:44:19.956Z,26.60
2022-10-22T13:46:48.691Z,26.60
2022-10-22T13:49:18.690Z,26.60
2022-10-22T13:51:46.989Z,26.60
2022-10-22T13:54:23.961Z,26.60
2022-10-22T13:56:51.159Z,26.40
2022-10-22T13:59:21.306Z,26.30
2022-10-22T14:01:51.823Z,26.30
2022-10-22T14:04:19.197Z,26.30
2022-10-22T14:06:46.326Z,26.30
2022-10-22T14:09:15.951Z,26.50
2022-10-22T14:11:43.356Z,26.50
2022-10-22T14:14:17.289Z,26.50
2022-10-22T14:16:45.016Z,26.50
2022-10-22T14:19:16.676Z,26.40
2022-10-22T14:21:44.312Z,26.20
2022-10-22T14:24:13.263Z,26.10
2022-10-22T14:26:41.066Z,26.00
2022-10-22T14:29:09.868Z,26.00
2022-10-22T14:31:44.083Z,25.90
2022-10-22T14:34:14.333Z,25.80
2022-10-22T14:36:44.060Z,25.70
2022-10-22T14:39:12.210Z,25.60
2022-10-22T14:41:39.701Z,25.40
2022-10-22T14:44:07.794Z,25.40
2022-10-22T14:46:34.926Z,25.40
2022-10-22T14:49:02.993Z,25.50
2022-10-22T14:51:30.100Z,25.50
2022-10-22T14:53:57.404Z,25.40
2022-10-22T14:56:24.755Z,25.40
2022-10-22T14:58:53.460Z,25.40
2022-10-22T15:01:20.734Z,25.40
2022-10-22T15:03:48.112Z,25.30
2022-10-22T15:06:15.333Z,25.30
2022-10-22T15:08:43.229Z,25.20
2022-10-22T15:11:13.955Z,25.20
2022-10-22T15:13:42.295Z,25.20
2022-10-22T15:16:11.569Z,25.20
2022-10-22T15:18:38.828Z,25.10
2022-10-22T15:21:13.239Z,25.10
2022-10-22T15:23:40.881Z,25.00
2022-10-22T15:26:09.802Z,25.00
2022-10-22T15:28:38.807Z,24.90
2022-10-22T15:31:07.094Z,24.80
2022-10-22T15:33:36.032Z,24.80
2022-10-22T15:36:15.534Z,24.70
2022-10-22T15:38:42.811Z,24.60
2022-10-22T15:41:13.574Z,24.60
2022-10-22T15:43:40.979Z,24.50
2022-10-22T15:46:19.725Z,24.40
2022-10-22T15:48:46.996Z,24.30
2022-10-22T15:51:17.415Z,24.20
2022-10-22T15:53:50.669Z,24.10
2022-10-22T15:56:18.009Z,24.00
2022-10-22T15:58:45.160Z,23.90
2022-10-22T16:01:14.227Z,23.80
2022-10-22T16:03:41.881Z,23.60
2022-10-22T16:06:09.788Z,23.60
2022-10-22T16:08:37.913Z,23.50
2022-10-22T16:11:05.766Z,23.40
2022-10-22T16:13:32.969Z,23.30
2022-10-22T16:16:07.161Z,23.20
2022-10-22T16:18:34.361Z,23.20
2022-10-22T16:21:01.653Z,23.10
2022-10-22T16:23:28.894Z,23.10
2022-10-22T16:25:56.151Z,23.10
2022-10-22T16:28:23.328Z,23.00
2022-10-22T16:30:50.685Z,23.00
2022-10-22T16:33:17.899Z,23.00
2022-10-22T16:35:45.018Z,23.00
2022-10-22T16:38:12.514Z,23.00
2022-10-22T16:40:40.151Z,22.90
2022-10-22T16:43:07.502Z,22.90
2022-10-22T16:45:34.654Z,22.80
2022-10-22T16:48:02.020Z,22.80
2022-10-22T16:50:29.345Z,22.80
2022-10-22T16:52:56.600Z,22.80
2022-10-22T16:55:23.770Z,22.70
2022-10-22T16:57:52.700Z,22.70
2022-10-22T17:00:20.667Z,22.80
2022-10-22T17:02:53.150Z,22.80
2022-10-22T17:05:21.325Z,22.70
2022-10-22T17:07:49.137Z,22.90
2022-10-22T17:10:17.258Z,22.90
2022-10-22T17:12:44.568Z,22.80
2022-10-22T17:15:12.491Z,22.80
2022-10-22T17:17:39.828Z,22.80
2022-10-22T17:20:07.654Z,22.80
2022-10-22T17:22:35.994Z,22.70
2022-10-22T17:25:16.397Z,22.70
2022-10-22T17:27:45.508Z,22.60
2022-10-22T17:30:16.986Z,22.60
2022-10-22T17:32:44.721Z,22.50
2022-10-22T17:35:14.589Z,22.50
2022-10-22T17:37:42.289Z,22.50
2022-10-22T17:40:10.221Z,22.40
2022-10-22T17:42:37.465Z,22.40
2022-10-22T17:45:05.173Z,22.40
2022-10-22T17:47:32.417Z,22.30
2022-10-22T17:49:59.752Z,22.30
2022-10-22T17:52:26.972Z,22.30
2022-10-22T17:54:54.959Z,22.20
2022-10-22T17:57:22.200Z,22.20
2022-10-22T17:59:49.551Z,22.10
2022-10-22T18:02:18.595Z,22.10
2022-10-22T18:04:46.049Z,22.10
2022-10-22T18:07:13.664Z,22.00
2022-10-22T18:09:42.920Z,22.00
2022-10-22T18:12:13.964Z,22.00
2022-10-22T18:14:41.558Z,22.00
2022-10-22T18:17:09.162Z,22.00
2022-10-22T18:19:37.402Z,22.00
2022-10-22T18:22:05.919Z,22.00
2022-10-22T18:24:33.038Z,21.90
2022-10-22T18:27:01.333Z,21.90
2022-10-22T18:29:29.243Z,21.80
2022-10-22T18:31:57.047Z,21.80
2022-10-22T18:34:25.204Z,21.70
2022-10-22T18:36:52.917Z,21.70
2022-10-22T18:39:20.744Z,21.70
2022-10-22T18:41:48.440Z,21.60
2022-10-22T18:44:15.914Z,21.60
2022-10-22T18:46:43.299Z,21.60
2022-10-22T18:49:18.408Z,21.60
2022-10-22T18:51:48.689Z,21.60
2022-10-22T18:54:23.071Z,21.60
2022-10-22T18:56:51.074Z,21.50
2022-10-22T18:59:23.631Z,21.50
2022-10-22T19:01:53.180Z,21.40
2022-10-22T19:04:20.642Z,21.40
2022-10-22T19:06:48.469Z,21.30
2022-10-22T19:09:16.817Z,21.30
2022-10-22T19:11:45.263Z,21.30
2022-10-22T19:14:14.891Z,21.30
2022-10-22T19:16:42.445Z,21.20
2022-10-22T19:19:09.674Z,21.20
2022-10-22T19:21:38.257Z,21.10
2022-10-22T19:24:06.001Z,21.10
2022-10-22T19:26:33.161Z,21.10
2022-10-22T19:29:00.741Z,21.10
2022-10-22T19:31:32.861Z,21.00
2022-10-22T19:34:03.101Z,21.00
2022-10-22T19:36:32.872Z,21.00
2022-10-22T19:39:00.546Z,20.90
2022-10-22T19:41:29.051Z,20.90
2022-10-22T19:43:57.854Z,20.90
2022-10-22T19:46:27.007Z,20.80
2022-10-22T19:48:57.124Z,20.80
2022-10-22T19:51:30.255Z,20.70
2022-10-22T19:54:03.381Z,20.70
2022-10-22T19:56:31.152Z,20.70
2022-10-22T19:58:59.070Z,20.70
2022-10-22T20:01:27.135Z,20.60
2022-10-22T20:03:55.899Z,20.60
2022-10-22T20:06:23.488Z,20.60
2022-10-22T20:08:55.173Z,20.60
2022-10-22T20:11:29.049Z,20.60
2022-10-22T20:13:59.764Z,20.50
2022-10-22T20:16:30.345Z,20.50
2022-10-22T20:19:05.034Z,20.50
2022-10-22T20:21:44.065Z,20.50
2022-10-22T20:24:15.524Z,20.50
2022-10-22T20:26:46.837Z,20.40
2022-10-22T20:29:16.318Z,20.40
2022-10-22T20:31:43.822Z,20.40
2022-10-22T20:40:02.376Z,20.30
2022-10-22T20:42:32.172Z,20.20
2022-10-22T20:44:59.554Z,20.20
2022-10-22T20:47:39.372Z,20.20
2022-10-22T20:50:19.049Z,20.20
2022-10-22T20:52:47.883Z,20.20
2022-10-22T20:57:49.332Z,20.20
2022-10-22T21:00:17.137Z,20.20
2022-10-22T21:02:44.998Z,20.20
2022-10-22T21:05:13.672Z,20.30
2022-10-22T21:07:42.719Z,20.30
2022-10-22T21:10:11.378Z,20.20
2022-10-22T21:12:44.819Z,20.20
2022-10-22T21:15:18.924Z,20.20
2022-10-22T21:17:47.701Z,20.10
2022-10-22T21:20:17.855Z,20.10
2022-10-22T21:22:49.418Z,20.10
2022-10-22T21:25:18.897Z,20.10
2022-10-22T21:27:46.689Z,20.00
2022-10-22T21:30:14.305Z,20.00
2022-10-22T21:32:44.798Z,20.00
2022-10-22T21:35:18.592Z,19.90
2022-10-22T21:37:46.002Z,19.90
2022-10-22T21:40:14.181Z,19.80
2022-10-22T21:48:04.686Z,19.80
2022-10-22T21:50:33.092Z,19.70
2022-10-22T21:53:00.564Z,19.70
2022-10-22T21:55:44.946Z,19.70
2022-10-22T21:58:12.777Z,19.70
2022-10-22T22:00:40.428Z,19.60
2022-10-22T22:03:29.789Z,19.60
2022-10-22T22:06:04.817Z,19.50
2022-10-22T22:08:33.564Z,19.50
2022-10-22T22:11:17.572Z,19.50
2022-10-22T22:13:46.123Z,19.40
2022-10-22T22:16:22.442Z,19.40
2022-10-22T22:18:55.029Z,19.40
2022-10-22T22:21:23.257Z,19.40
2022-10-22T22:23:51.194Z,19.40
2022-10-22T22:26:25.410Z,19.40
2022-10-22T22:28:57.215Z,19.30
2022-10-22T22:31:27.570Z,19.30
2022-10-22T22:34:09.232Z,19.30
2022-10-22T22:36:41.976Z,19.30
2022-10-22T22:39:12.392Z,19.20
2022-10-22T22:41:41.297Z,19.20
2022-10-22T22:44:08.739Z,19.20
2022-10-22T22:46:36.391Z,19.20
2022-10-22T22:49:04.529Z,19.20
2022-10-22T22:51:32.040Z,19.20
2022-10-22T22:54:01.485Z,19.20
2022-10-22T22:56:33.685Z,19.20
2022-10-22T22:59:01.515Z,19.20
2022-10-22T23:01:35.570Z,19.10
2022-10-22T23:04:02.782Z,19.10
2022-10-22T23:06:37.320Z,19.10
2022-10-22T23:09:07.009Z,19.10
2022-10-22T23:11:34.652Z,19.10
2022-10-22T23:14:05.578Z,19.00
2022-10-22T23:16:38.210Z,19.00
2022-10-22T23:19:08.276Z,19.00
2022-10-22T23:21:39.564Z,19.00
2022-10-22T23:24:09.549Z,19.00
2022-10-22T23:26:39.872Z,19.00
2022-10-22T23:29:16.705Z,19.00
2022-10-22T23:31:45.263Z,19.00
2022-10-22T23:34:16.793Z,18.90
2022-10-22T23:36:44.679Z,18.90
2022-10-22T23:39:15.869Z,19.00
2022-10-22T23:41:43.268Z,19.00
2022-10-22T23:44:11.362Z,19.00
2022-10-22T23:46:39.000Z,19.00
2022-10-22T23:49:08.326Z,19.00
2022-10-22T23:51:36.142Z,19.10
2022-10-22T23:54:07.051Z,19.10
2022-10-22T23:56:34.473Z,19.00
2022-10-22T23:59:02.241Z,19.00
